GW3247 Weather Reports


Display with metric or nautical units.
time (UTC)temp
F
wind
direction
speed
MPH
gust
MPH
rain 1hr
in
rain 24hr
in
rain mn
in
humidity
%
barometer
mb
20240621083027 60 73 8.0 10.0 0.00 0.00 0.00 78 1016.9
20240621081539 60 55 9.0 11.0 0.00 0.00 0.00 81 1017.0
20240621080028 60 49 4.0 5.0 0.00 0.00 0.00 83 1016.9
20240621074521 60 45 4.0 5.0 0.00 0.00 0.00 83 1016.8
20240621073022 60 44 3.0 5.0 0.00 0.00 0.00 83 1016.8
20240621071521 59 41 4.0 6.0 0.00 0.00 0.00 84 1016.9
20240621070022 59 51 5.0 6.0 0.00 0.00 0.00 84 1016.8
20240621064526 59 49 4.0 6.0 0.00 0.00 0.00 83 1017.0
20240621063019 59 52 4.0 6.0 0.00 0.00 0.00 84 1016.9
20240621061518 59 63 4.0 5.0 0.00 0.00 0.00 83 1016.9
20240621060017 60 66 4.0 6.0 0.00 0.00 0.00 82 1017.0
20240621054516 61 82 1.0 2.0 0.00 0.00 0.00 79 1017.2
20240621053016 62 117 0.0 1.0 0.00 0.00 0.00 75 1017.2
20240621051513 62 221 0.0 1.0 0.00 0.00 0.00 80 1017.2
20240621050011 61 232 0.0 1.0 0.00 0.00 0.00 81 1017.3
20240621044512 59 214 1.0 2.0 0.00 0.00 0.00 83 1017.6
20240621043004 57 185 1.0 3.0 0.00 0.00 0.00 85 1017.5
20240621041504 57 188 2.0 2.0 0.00 0.00 0.00 85 1017.4
20240621040008 57 199 1.0 2.0 0.00 0.00 0.00 84 1017.6
20240621034505 58 167 0.0 1.0 0.00 0.00 0.00 83 1017.5
20240621033104 58 349 0.0 3.0 0.00 0.00 0.00 86 1017.5
20240621031559 56 176 2.0 4.0 0.00 0.00 0.00 85 1017.5
20240621030106 56 222 0.0 2.0 0.00 0.00 0.00 84 1017.3
20240621024621 56 252 1.0 3.0 0.00 0.00 0.00 84 1017.4
20240621023053 56 226 1.0 3.0 0.00 0.00 0.00 84 1017.6
20240621021600 56 248 1.0 4.0 0.00 0.00 0.00 83 1017.6
20240621020058 56 239 2.0 4.0 0.00 0.00 0.00 83 1017.7
20240621014551 56 231 2.0 6.0 0.00 0.00 0.00 82 1017.8
20240621013047 56 218 3.0 5.0 0.00 0.00 0.00 82 1018.0
20240621011550 57 224 4.0 8.0 0.00 0.00 0.00 81 1018.3
20240621010048 57 249 3.0 8.0 0.00 0.00 0.00 80 1018.1
20240621004545 57 227 5.0 8.0 0.00 0.00 0.00 80 1018.5
20240621003044 56 217 7.0 10.0 0.00 0.00 0.00 79 1018.6
20240621001548 56 233 6.0 9.0 0.00 0.00 0.00 79 1018.4
20240621000041 56 206 3.0 6.0 0.00 0.00 0.00 79 1017.9
20240620234541 56 187 4.0 6.0 0.00 0.00 0.00 78 1018.0
20240620233101 57 218 6.0 9.0 0.00 0.00 0.00 77 1018.0
20240620231544 57 229 7.0 11.0 0.00 0.00 0.00 77 1017.9
20240620230051 57 229 5.0 11.0 0.00 0.00 0.00 76 1018.1
20240620224538 57 236 7.0 10.0 0.00 0.00 0.00 77 1018.5
20240620223040 57 222 5.0 11.0 0.00 0.00 0.00 76 1018.4
20240620221530 57 232 6.0 9.0 0.00 0.00 0.00 76 1018.4
20240620220033 57 225 4.0 9.0 0.00 0.00 0.00 76 1018.7
20240620214525 57 237 6.0 10.0 0.00 0.00 0.00 75 1018.7
20240620213040 57 219 4.0 8.0 0.00 0.00 0.00 76 1018.3
20240620211525 58 219 4.0 9.0 0.00 0.00 0.00 75 1018.5
20240620210034 58 233 5.0 9.0 0.00 0.00 0.00 74 1018.5
20240620204523 58 214 5.0 7.0 0.00 0.00 0.00 73 1018.5
20240620203032 59 226 3.0 5.0 0.00 0.00 0.00 73 1018.1
20240620201545 59 226 2.0 6.0 0.00 0.00 0.00 71 1018.2
20240620200023 60 230 4.0 7.0 0.00 0.00 0.00 70 1018.3
20240620194521 61 229 3.0 7.0 0.00 0.00 0.00 68 1018.0
20240620193034 61 252 2.0 8.0 0.00 0.00 0.00 68 1018.2
20240620191521 62 228 5.0 9.0 0.00 0.00 0.00 66 1018.5
20240620190019 62 264 4.0 7.0 0.00 0.00 0.00 63 1018.4
20240620184519 63 233 2.0 5.0 0.00 0.00 0.00 62 1018.3
20240620183018 63 254 4.0 8.0 0.00 0.00 0.00 61 1018.7
20240620181518 63 236 2.0 4.0 0.00 0.00 0.00 61 1018.6
20240620180021 63 269 2.0 5.0 0.00 0.00 0.00 61 1018.7
20240620174525 64 257 2.0 6.0 0.00 0.00 0.00 60 1018.9
20240620173016 64 256 5.0 8.0 0.00 0.00 0.00 58 1019.1
20240620171515 64 252 2.0 10.0 0.00 0.00 0.00 58 1019.4
20240620170019 64 269 4.0 11.0 0.00 0.00 0.00 56 1019.4
20240620164516 65 236 7.0 11.0 0.00 0.00 0.00 54 1019.4
20240620163012 64 226 5.0 10.0 0.00 0.00 0.00 53 1019.5
20240620161511 65 255 5.0 12.0 0.00 0.00 0.00 51 1019.6
20240620160009 65 299 5.0 10.0 0.00 0.00 0.00 52 1019.8
20240620154507 65 160 5.0 12.0 0.00 0.00 0.00 54 1020.0
20240620153005 64 231 7.0 13.0 0.00 0.00 0.00 54 1019.9
20240620151504 64 248 8.0 14.0 0.00 0.00 0.00 53 1020.2
20240620150100 64 281 7.0 12.0 0.00 0.00 0.00 50 1020.1
20240620144556 64 296 9.0 14.0 0.00 0.00 0.00 51 1020.0
20240620143056 64 269 5.0 13.0 0.00 0.00 0.00 54 1020.3
20240620141556 64 282 7.0 13.0 0.00 0.00 0.00 52 1020.6
20240620140055 63 248 7.0 11.0 0.00 0.00 0.00 57 1020.6
20240620134555 62 295 9.0 11.0 0.00 0.00 0.00 60 1020.5
20240620133057 61 304 7.0 10.0 0.00 0.00 0.00 64 1020.7
20240620131543 60 316 9.0 13.0 0.00 0.00 0.00 69 1020.7
20240620130039 60 301 9.0 12.0 0.00 0.00 0.00 70 1020.8
20240620124535 59 312 9.0 13.0 0.00 0.00 0.00 73 1020.9
20240620123042 59 316 9.0 11.0 0.00 0.00 0.00 72 1020.6
20240620121531 59 310 8.0 11.0 0.00 0.00 0.00 73 1020.8
20240620120031 59 307 9.0 12.0 0.00 0.00 0.00 73 1020.6
20240620114530 59 296 9.0 13.0 0.00 0.00 0.00 73 1020.9
20240620113036 59 302 10.0 13.0 0.00 0.00 0.00 73 1021.0
20240620111528 60 315 9.0 14.0 0.00 0.00 0.00 72 1021.0
20240620110029 59 287 9.0 13.0 0.00 0.00 0.00 68 1021.4
20240620104522 59 288 9.0 14.0 0.00 0.00 0.00 70 1021.1
20240620103021 59 299 9.0 14.0 0.00 0.00 0.00 70 1021.1
20240620101534 59 293 9.0 14.0 0.00 0.00 0.00 73 1021.1
20240620100017 58 290 10.0 15.0 0.00 0.00 0.00 74 1020.9
20240620094528 58 304 13.0 17.0 0.00 0.00 0.00 73 1020.6
20240620093017 57 291 12.0 17.0 0.00 0.00 0.00 73 1020.9
20240620091513 57 295 10.0 17.0 0.00 0.00 0.00 74 1020.7
20240620090012 57 304 14.0 18.0 0.00 0.00 0.00 71 1020.2
20240620084512 57 300 11.0 17.0 0.00 0.00 0.00 74 1020.7